sensor_id;sensor_type;location;lat;lon;timestamp;P1;durP1;ratioP1;P2;durP2;ratioP2
65405;SDS011;52016;51.228;-2.322;2022-09-20T00:01:06;18.10;;;8.07;;
65405;SDS011;52016;51.228;-2.322;2022-09-20T00:04:49;16.08;;;8.40;;
65405;SDS011;52016;51.228;-2.322;2022-09-20T00:08:31;15.30;;;7.95;;
65405;SDS011;52016;51.228;-2.322;2022-09-20T00:12:14;15.52;;;8.27;;
65405;SDS011;52016;51.228;-2.322;2022-09-20T00:15:56;20.60;;;9.38;;
65405;SDS011;52016;51.228;-2.322;2022-09-20T00:19:38;18.15;;;9.48;;
65405;SDS011;52016;51.228;-2.322;2022-09-20T00:23:21;18.52;;;9.18;;
65405;SDS011;52016;51.228;-2.322;2022-09-20T00:27:02;17.20;;;8.60;;
65405;SDS011;52016;51.228;-2.322;2022-09-20T00:30:44;15.93;;;8.73;;
65405;SDS011;52016;51.228;-2.322;2022-09-20T00:34:26;11.85;;;7.80;;
65405;SDS011;52016;51.228;-2.322;2022-09-20T00:38:27;14.00;;;8.23;;
65405;SDS011;52016;51.228;-2.322;2022-09-20T00:42:15;9.82;;;7.07;;
65405;SDS011;52016;51.228;-2.322;2022-09-20T00:45:56;10.40;;;6.75;;
65405;SDS011;52016;51.228;-2.322;2022-09-20T00:49:38;12.52;;;7.93;;
65405;SDS011;52016;51.228;-2.322;2022-09-20T00:53:31;10.88;;;7.07;;
65405;SDS011;52016;51.228;-2.322;2022-09-20T00:57:18;8.70;;;6.68;;
65405;SDS011;52016;51.228;-2.322;2022-09-20T01:00:59;11.80;;;6.63;;
65405;SDS011;52016;51.228;-2.322;2022-09-20T01:04:42;11.85;;;6.68;;
65405;SDS011;52016;51.228;-2.322;2022-09-20T01:08:24;7.72;;;6.05;;
65405;SDS011;52016;51.228;-2.322;2022-09-20T01:12:13;9.82;;;6.15;;
65405;SDS011;52016;51.228;-2.322;2022-09-20T01:15:58;8.95;;;6.00;;
65405;SDS011;52016;51.228;-2.322;2022-09-20T01:23:43;9.48;;;6.18;;
65405;SDS011;52016;51.228;-2.322;2022-09-20T01:27:45;8.68;;;6.15;;
65405;SDS011;52016;51.228;-2.322;2022-09-20T01:31:32;7.70;;;5.85;;
65405;SDS011;52016;51.228;-2.322;2022-09-20T01:35:16;7.13;;;5.70;;
65405;SDS011;52016;51.228;-2.322;2022-09-20T01:39:11;8.18;;;6.28;;
65405;SDS011;52016;51.228;-2.322;2022-09-20T01:43:06;7.50;;;6.30;;
65405;SDS011;52016;51.228;-2.322;2022-09-20T01:47:10;16.80;;;8.00;;
65405;SDS011;52016;51.228;-2.322;2022-09-20T01:59:48;18.92;;;9.30;;
65405;SDS011;52016;51.228;-2.322;2022-09-20T02:20:44;9.93;;;5.75;;
65405;SDS011;52016;51.228;-2.322;2022-09-20T02:44:51;12.73;;;7.53;;
65405;SDS011;52016;51.228;-2.322;2022-09-20T02:52:41;8.98;;;6.68;;
65405;SDS011;52016;51.228;-2.322;2022-09-20T02:56:50;10.40;;;6.55;;
65405;SDS011;52016;51.228;-2.322;2022-09-20T03:05:00;10.68;;;7.10;;
65405;SDS011;52016;51.228;-2.322;2022-09-20T03:13:28;9.40;;;6.13;;
65405;SDS011;52016;51.228;-2.322;2022-09-20T03:17:48;10.45;;;6.03;;
65405;SDS011;52016;51.228;-2.322;2022-09-20T03:21:54;8.18;;;6.07;;
65405;SDS011;52016;51.228;-2.322;2022-09-20T03:26:01;6.32;;;5.10;;
65405;SDS011;52016;51.228;-2.322;2022-09-20T03:30:12;6.63;;;4.25;;
65405;SDS011;52016;51.228;-2.322;2022-09-20T03:34:27;9.50;;;5.32;;
65405;SDS011;52016;51.228;-2.322;2022-09-20T03:46:04;7.18;;;5.25;;
65405;SDS011;52016;51.228;-2.322;2022-09-20T03:49:59;6.80;;;5.28;;
65405;SDS011;52016;51.228;-2.322;2022-09-20T04:01:58;6.75;;;5.13;;
65405;SDS011;52016;51.228;-2.322;2022-09-20T04:06:02;6.72;;;5.15;;
65405;SDS011;52016;51.228;-2.322;2022-09-20T04:10:17;8.75;;;5.65;;
65405;SDS011;52016;51.228;-2.322;2022-09-20T04:14:16;8.70;;;5.90;;
65405;SDS011;52016;51.228;-2.322;2022-09-20T04:22:36;7.90;;;5.72;;
65405;SDS011;52016;51.228;-2.322;2022-09-20T04:26:23;9.23;;;6.28;;
65405;SDS011;52016;51.228;-2.322;2022-09-20T04:30:17;13.23;;;6.05;;
65405;SDS011;52016;51.228;-2.322;2022-09-20T04:34:02;11.40;;;5.82;;
65405;SDS011;52016;51.228;-2.322;2022-09-20T04:37:51;11.23;;;5.57;;
65405;SDS011;52016;51.228;-2.322;2022-09-20T05:30:53;13.75;;;8.20;;
65405;SDS011;52016;51.228;-2.322;2022-09-20T05:34:47;15.15;;;7.75;;
65405;SDS011;52016;51.228;-2.322;2022-09-20T05:42:43;9.02;;;6.63;;
65405;SDS011;52016;51.228;-2.322;2022-09-20T05:55:55;12.05;;;7.28;;
65405;SDS011;52016;51.228;-2.322;2022-09-20T06:00:00;12.20;;;7.63;;
65405;SDS011;52016;51.228;-2.322;2022-09-20T06:15:59;9.85;;;6.53;;
65405;SDS011;52016;51.228;-2.322;2022-09-20T06:19:46;10.52;;;6.53;;
65405;SDS011;52016;51.228;-2.322;2022-09-20T06:23:38;12.60;;;6.75;;
65405;SDS011;52016;51.228;-2.322;2022-09-20T06:27:22;13.70;;;6.25;;
65405;SDS011;52016;51.228;-2.322;2022-09-20T06:31:11;17.05;;;6.80;;
65405;SDS011;52016;51.228;-2.322;2022-09-20T06:34:53;18.42;;;6.78;;
65405;SDS011;52016;51.228;-2.322;2022-09-20T06:43:09;14.20;;;5.57;;
65405;SDS011;52016;51.228;-2.322;2022-09-20T06:46:54;15.95;;;5.63;;
65405;SDS011;52016;51.228;-2.322;2022-09-20T06:50:36;11.20;;;6.32;;
65405;SDS011;52016;51.228;-2.322;2022-09-20T06:54:18;12.65;;;5.25;;
65405;SDS011;52016;51.228;-2.322;2022-09-20T06:58:02;8.10;;;5.57;;
65405;SDS011;52016;51.228;-2.322;2022-09-20T07:01:44;14.80;;;5.50;;
65405;SDS011;52016;51.228;-2.322;2022-09-20T07:05:26;12.85;;;5.53;;
65405;SDS011;52016;51.228;-2.322;2022-09-20T07:09:08;9.82;;;5.90;;
65405;SDS011;52016;51.228;-2.322;2022-09-20T07:12:53;8.40;;;4.90;;
65405;SDS011;52016;51.228;-2.322;2022-09-20T07:16:40;14.80;;;5.10;;
65405;SDS011;52016;51.228;-2.322;2022-09-20T07:20:22;11.93;;;5.45;;
65405;SDS011;52016;51.228;-2.322;2022-09-20T07:24:04;8.18;;;4.93;;
65405;SDS011;52016;51.228;-2.322;2022-09-20T07:27:47;6.50;;;5.32;;
65405;SDS011;52016;51.228;-2.322;2022-09-20T07:31:30;13.25;;;5.10;;
65405;SDS011;52016;51.228;-2.322;2022-09-20T07:35:12;11.40;;;4.47;;
65405;SDS011;52016;51.228;-2.322;2022-09-20T07:38:54;10.13;;;5.05;;
65405;SDS011;52016;51.228;-2.322;2022-09-20T07:42:36;21.80;;;5.45;;
65405;SDS011;52016;51.228;-2.322;2022-09-20T07:46:18;31.10;;;5.40;;
65405;SDS011;52016;51.228;-2.322;2022-09-20T07:50:03;15.95;;;5.00;;
65405;SDS011;52016;51.228;-2.322;2022-09-20T07:53:45;16.17;;;4.93;;
65405;SDS011;52016;51.228;-2.322;2022-09-20T07:57:27;11.57;;;5.05;;
65405;SDS011;52016;51.228;-2.322;2022-09-20T08:01:10;12.77;;;4.88;;
65405;SDS011;52016;51.228;-2.322;2022-09-20T08:04:53;14.63;;;5.13;;
65405;SDS011;52016;51.228;-2.322;2022-09-20T08:08:36;13.43;;;5.30;;
65405;SDS011;52016;51.228;-2.322;2022-09-20T08:12:20;11.18;;;4.60;;
65405;SDS011;52016;51.228;-2.322;2022-09-20T08:16:22;14.90;;;5.85;;
65405;SDS011;52016;51.228;-2.322;2022-09-20T08:20:04;20.70;;;4.95;;
65405;SDS011;52016;51.228;-2.322;2022-09-20T08:23:46;18.77;;;5.55;;
65405;SDS011;52016;51.228;-2.322;2022-09-20T08:27:28;19.90;;;5.22;;
65405;SDS011;52016;51.228;-2.322;2022-09-20T08:31:11;13.82;;;4.82;;
65405;SDS011;52016;51.228;-2.322;2022-09-20T08:34:55;8.55;;;5.55;;
65405;SDS011;52016;51.228;-2.322;2022-09-20T08:38:37;11.02;;;4.70;;
65405;SDS011;52016;51.228;-2.322;2022-09-20T08:42:38;20.67;;;5.60;;
65405;SDS011;52016;51.228;-2.322;2022-09-20T08:46:26;17.58;;;6.22;;
65405;SDS011;52016;51.228;-2.322;2022-09-20T08:50:14;11.63;;;5.40;;
65405;SDS011;52016;51.228;-2.322;2022-09-20T08:53:58;17.30;;;6.88;;
65405;SDS011;52016;51.228;-2.322;2022-09-20T08:57:40;11.93;;;5.65;;
65405;SDS011;52016;51.228;-2.322;2022-09-20T09:01:23;10.77;;;6.10;;
65405;SDS011;52016;51.228;-2.322;2022-09-20T09:05:15;13.73;;;5.97;;
65405;SDS011;52016;51.228;-2.322;2022-09-20T09:09:13;15.15;;;6.70;;
65405;SDS011;52016;51.228;-2.322;2022-09-20T09:13:03;11.13;;;6.43;;
65405;SDS011;52016;51.228;-2.322;2022-09-20T09:16:46;10.48;;;6.55;;
65405;SDS011;52016;51.228;-2.322;2022-09-20T09:20:28;18.55;;;7.07;;
65405;SDS011;52016;51.228;-2.322;2022-09-20T09:24:21;12.68;;;7.53;;
65405;SDS011;52016;51.228;-2.322;2022-09-20T09:31:49;9.60;;;7.18;;
65405;SDS011;52016;51.228;-2.322;2022-09-20T09:35:34;11.30;;;6.95;;
65405;SDS011;52016;51.228;-2.322;2022-09-20T09:43:09;9.43;;;5.32;;
65405;SDS011;52016;51.228;-2.322;2022-09-20T09:47:03;7.30;;;4.60;;
65405;SDS011;52016;51.228;-2.322;2022-09-20T09:51:17;8.27;;;5.20;;
65405;SDS011;52016;51.228;-2.322;2022-09-20T09:55:00;6.90;;;5.68;;
65405;SDS011;52016;51.228;-2.322;2022-09-20T09:58:50;5.40;;;4.30;;
65405;SDS011;52016;51.228;-2.322;2022-09-20T10:07:03;11.07;;;4.60;;
65405;SDS011;52016;51.228;-2.322;2022-09-20T10:14:51;3.95;;;2.28;;
65405;SDS011;52016;51.228;-2.322;2022-09-20T10:19:21;5.88;;;2.80;;
65405;SDS011;52016;51.228;-2.322;2022-09-20T10:27:33;2.97;;;2.58;;
65405;SDS011;52016;51.228;-2.322;2022-09-20T10:39:34;2.97;;;2.17;;
65405;SDS011;52016;51.228;-2.322;2022-09-20T10:43:23;1.80;;;1.70;;
65405;SDS011;52016;51.228;-2.322;2022-09-20T10:47:15;2.33;;;1.88;;
65405;SDS011;52016;51.228;-2.322;2022-09-20T11:11:33;2.50;;;2.30;;
65405;SDS011;52016;51.228;-2.322;2022-09-20T11:23:11;1.83;;;1.52;;
65405;SDS011;52016;51.228;-2.322;2022-09-20T11:27:04;1.70;;;1.60;;
65405;SDS011;52016;51.228;-2.322;2022-09-20T11:30:57;2.40;;;1.55;;
65405;SDS011;52016;51.228;-2.322;2022-09-20T11:34:51;1.67;;;1.40;;
65405;SDS011;52016;51.228;-2.322;2022-09-20T11:38:48;1.50;;;1.40;;
65405;SDS011;52016;51.228;-2.322;2022-09-20T11:42:35;4.25;;;1.70;;
65405;SDS011;52016;51.228;-2.322;2022-09-20T11:46:21;1.35;;;1.25;;
65405;SDS011;52016;51.228;-2.322;2022-09-20T11:58:46;1.40;;;1.30;;
65405;SDS011;52016;51.228;-2.322;2022-09-20T12:02:37;1.55;;;1.40;;
65405;SDS011;52016;51.228;-2.322;2022-09-20T12:06:29;5.88;;;4.78;;
65405;SDS011;52016;51.228;-2.322;2022-09-20T12:10:21;1.65;;;1.08;;
65405;SDS011;52016;51.228;-2.322;2022-09-20T12:14:35;1.23;;;1.20;;
65405;SDS011;52016;51.228;-2.322;2022-09-20T12:22:26;1.58;;;1.45;;
65405;SDS011;52016;51.228;-2.322;2022-09-20T12:26:09;1.98;;;1.40;;
65405;SDS011;52016;51.228;-2.322;2022-09-20T12:30:03;2.58;;;1.38;;
65405;SDS011;52016;51.228;-2.322;2022-09-20T12:37:42;1.25;;;1.20;;
65405;SDS011;52016;51.228;-2.322;2022-09-20T12:41:24;1.48;;;1.38;;
65405;SDS011;52016;51.228;-2.322;2022-09-20T12:45:15;1.70;;;1.60;;
65405;SDS011;52016;51.228;-2.322;2022-09-20T12:49:42;1.50;;;1.40;;
65405;SDS011;52016;51.228;-2.322;2022-09-20T12:53:28;1.50;;;1.40;;
65405;SDS011;52016;51.228;-2.322;2022-09-20T12:57:16;1.58;;;1.48;;
65405;SDS011;52016;51.228;-2.322;2022-09-20T13:04:54;1.60;;;1.50;;
65405;SDS011;52016;51.228;-2.322;2022-09-20T13:08:51;1.33;;;1.33;;
65405;SDS011;52016;51.228;-2.322;2022-09-20T13:12:40;1.60;;;1.50;;
65405;SDS011;52016;51.228;-2.322;2022-09-20T13:20:23;6.85;;;1.70;;
65405;SDS011;52016;51.228;-2.322;2022-09-20T13:24:11;1.77;;;1.30;;
65405;SDS011;52016;51.228;-2.322;2022-09-20T13:28:04;1.40;;;1.30;;
65405;SDS011;52016;51.228;-2.322;2022-09-20T13:36:03;1.50;;;1.40;;
65405;SDS011;52016;51.228;-2.322;2022-09-20T13:39:45;1.73;;;1.30;;
65405;SDS011;52016;51.228;-2.322;2022-09-20T13:44:01;4.18;;;1.40;;
65405;SDS011;52016;51.228;-2.322;2022-09-20T13:47:39;4.20;;;1.35;;
65405;SDS011;52016;51.228;-2.322;2022-09-20T13:51:24;3.35;;;1.45;;
65405;SDS011;52016;51.228;-2.322;2022-09-20T13:59:10;2.65;;;1.65;;
65405;SDS011;52016;51.228;-2.322;2022-09-20T14:02:59;3.58;;;1.48;;
65405;SDS011;52016;51.228;-2.322;2022-09-20T14:06:41;4.20;;;1.75;;
65405;SDS011;52016;51.228;-2.322;2022-09-20T14:10:36;1.73;;;1.60;;
65405;SDS011;52016;51.228;-2.322;2022-09-20T14:14:23;4.43;;;1.63;;
65405;SDS011;52016;51.228;-2.322;2022-09-20T14:18:06;1.60;;;1.50;;
65405;SDS011;52016;51.228;-2.322;2022-09-20T14:21:55;2.30;;;1.90;;
65405;SDS011;52016;51.228;-2.322;2022-09-20T14:25:38;1.70;;;1.60;;
65405;SDS011;52016;51.228;-2.322;2022-09-20T14:29:39;2.08;;;1.80;;
65405;SDS011;52016;51.228;-2.322;2022-09-20T14:33:22;4.43;;;2.00;;
65405;SDS011;52016;51.228;-2.322;2022-09-20T14:37:08;1.92;;;1.80;;
65405;SDS011;52016;51.228;-2.322;2022-09-20T14:40:55;2.92;;;1.90;;
65405;SDS011;52016;51.228;-2.322;2022-09-20T14:44:36;1.83;;;1.60;;
65405;SDS011;52016;51.228;-2.322;2022-09-20T14:56:11;2.25;;;1.98;;
65405;SDS011;52016;51.228;-2.322;2022-09-20T14:59:55;2.20;;;2.00;;
65405;SDS011;52016;51.228;-2.322;2022-09-20T15:03:40;1.75;;;1.63;;
65405;SDS011;52016;51.228;-2.322;2022-09-20T15:07:22;3.28;;;1.80;;
65405;SDS011;52016;51.228;-2.322;2022-09-20T15:11:04;2.72;;;2.05;;
65405;SDS011;52016;51.228;-2.322;2022-09-20T15:14:46;5.65;;;2.20;;
65405;SDS011;52016;51.228;-2.322;2022-09-20T15:18:36;3.50;;;2.50;;
65405;SDS011;52016;51.228;-2.322;2022-09-20T15:22:21;4.28;;;2.50;;
65405;SDS011;52016;51.228;-2.322;2022-09-20T15:26:03;3.30;;;2.20;;
65405;SDS011;52016;51.228;-2.322;2022-09-20T15:29:46;2.30;;;2.10;;
65405;SDS011;52016;51.228;-2.322;2022-09-20T15:33:29;3.88;;;2.25;;
65405;SDS011;52016;51.228;-2.322;2022-09-20T15:37:14;8.10;;;2.40;;
65405;SDS011;52016;51.228;-2.322;2022-09-20T15:40:58;5.22;;;2.30;;
65405;SDS011;52016;51.228;-2.322;2022-09-20T15:44:41;4.88;;;2.15;;
65405;SDS011;52016;51.228;-2.322;2022-09-20T15:48:23;3.78;;;2.10;;
65405;SDS011;52016;51.228;-2.322;2022-09-20T15:52:06;3.60;;;2.30;;
65405;SDS011;52016;51.228;-2.322;2022-09-20T15:55:48;5.25;;;2.17;;
65405;SDS011;52016;51.228;-2.322;2022-09-20T15:59:30;4.55;;;2.28;;
65405;SDS011;52016;51.228;-2.322;2022-09-20T16:03:14;2.40;;;2.10;;
65405;SDS011;52016;51.228;-2.322;2022-09-20T16:06:56;3.30;;;2.05;;
65405;SDS011;52016;51.228;-2.322;2022-09-20T16:10:38;2.75;;;2.20;;
65405;SDS011;52016;51.228;-2.322;2022-09-20T16:14:20;3.40;;;2.38;;
65405;SDS011;52016;51.228;-2.322;2022-09-20T16:18:01;3.83;;;1.88;;
65405;SDS011;52016;51.228;-2.322;2022-09-20T16:22:02;4.40;;;2.00;;
65405;SDS011;52016;51.228;-2.322;2022-09-20T16:25:44;4.20;;;2.30;;
65405;SDS011;52016;51.228;-2.322;2022-09-20T16:29:30;6.50;;;2.03;;
65405;SDS011;52016;51.228;-2.322;2022-09-20T16:33:13;2.40;;;1.92;;
65405;SDS011;52016;51.228;-2.322;2022-09-20T16:37:03;6.72;;;2.75;;
65405;SDS011;52016;51.228;-2.322;2022-09-20T16:40:47;3.03;;;2.38;;
65405;SDS011;52016;51.228;-2.322;2022-09-20T16:44:32;2.38;;;2.13;;
65405;SDS011;52016;51.228;-2.322;2022-09-20T16:48:15;2.80;;;2.20;;
65405;SDS011;52016;51.228;-2.322;2022-09-20T16:51:57;2.22;;;2.03;;
65405;SDS011;52016;51.228;-2.322;2022-09-20T16:55:42;7.70;;;3.20;;
65405;SDS011;52016;51.228;-2.322;2022-09-20T16:59:24;7.72;;;1.90;;
65405;SDS011;52016;51.228;-2.322;2022-09-20T17:03:06;2.15;;;1.95;;
65405;SDS011;52016;51.228;-2.322;2022-09-20T17:06:48;5.80;;;2.05;;
65405;SDS011;52016;51.228;-2.322;2022-09-20T17:10:31;3.45;;;2.35;;
65405;SDS011;52016;51.228;-2.322;2022-09-20T17:14:13;4.30;;;2.78;;
65405;SDS011;52016;51.228;-2.322;2022-09-20T17:17:57;3.45;;;2.40;;
65405;SDS011;52016;51.228;-2.322;2022-09-20T17:21:40;4.45;;;2.20;;
65405;SDS011;52016;51.228;-2.322;2022-09-20T17:25:25;2.70;;;2.25;;
65405;SDS011;52016;51.228;-2.322;2022-09-20T17:29:08;6.47;;;2.40;;
65405;SDS011;52016;51.228;-2.322;2022-09-20T17:32:51;7.13;;;2.70;;
65405;SDS011;52016;51.228;-2.322;2022-09-20T17:36:34;3.47;;;2.67;;
65405;SDS011;52016;51.228;-2.322;2022-09-20T17:40:19;6.70;;;2.90;;
65405;SDS011;52016;51.228;-2.322;2022-09-20T17:44:01;14.57;;;7.55;;
65405;SDS011;52016;51.228;-2.322;2022-09-20T17:47:48;5.03;;;3.13;;
65405;SDS011;52016;51.228;-2.322;2022-09-20T17:51:31;3.78;;;2.92;;
65405;SDS011;52016;51.228;-2.322;2022-09-20T17:55:14;3.95;;;3.45;;
65405;SDS011;52016;51.228;-2.322;2022-09-20T17:59:03;6.82;;;3.65;;
65405;SDS011;52016;51.228;-2.322;2022-09-20T18:02:45;8.75;;;3.47;;
65405;SDS011;52016;51.228;-2.322;2022-09-20T18:06:29;7.63;;;3.55;;
65405;SDS011;52016;51.228;-2.322;2022-09-20T18:10:12;3.55;;;3.13;;
65405;SDS011;52016;51.228;-2.322;2022-09-20T18:13:55;4.50;;;3.17;;
65405;SDS011;52016;51.228;-2.322;2022-09-20T18:17:38;7.63;;;3.78;;
65405;SDS011;52016;51.228;-2.322;2022-09-20T18:21:21;6.38;;;3.03;;
65405;SDS011;52016;51.228;-2.322;2022-09-20T18:25:04;7.85;;;4.82;;
65405;SDS011;52016;51.228;-2.322;2022-09-20T18:28:49;4.95;;;2.80;;
65405;SDS011;52016;51.228;-2.322;2022-09-20T18:32:38;7.20;;;3.92;;
65405;SDS011;52016;51.228;-2.322;2022-09-20T18:36:22;5.68;;;3.72;;
65405;SDS011;52016;51.228;-2.322;2022-09-20T18:40:07;4.72;;;3.72;;
65405;SDS011;52016;51.228;-2.322;2022-09-20T18:43:50;7.28;;;4.47;;
65405;SDS011;52016;51.228;-2.322;2022-09-20T18:47:36;6.38;;;4.05;;
65405;SDS011;52016;51.228;-2.322;2022-09-20T18:51:18;8.82;;;5.57;;
65405;SDS011;52016;51.228;-2.322;2022-09-20T18:55:01;11.02;;;5.40;;
65405;SDS011;52016;51.228;-2.322;2022-09-20T18:58:51;11.05;;;5.93;;
65405;SDS011;52016;51.228;-2.322;2022-09-20T19:02:47;6.72;;;4.72;;
65405;SDS011;52016;51.228;-2.322;2022-09-20T19:06:52;12.73;;;5.97;;
65405;SDS011;52016;51.228;-2.322;2022-09-20T19:14:28;13.20;;;6.07;;
65405;SDS011;52016;51.228;-2.322;2022-09-20T19:18:29;7.60;;;4.85;;
65405;SDS011;52016;51.228;-2.322;2022-09-20T19:22:27;11.32;;;5.20;;
65405;SDS011;52016;51.228;-2.322;2022-09-20T19:26:33;5.43;;;2.83;;
65405;SDS011;52016;51.228;-2.322;2022-09-20T19:30:18;6.68;;;3.30;;
65405;SDS011;52016;51.228;-2.322;2022-09-20T19:34:02;5.55;;;3.45;;
65405;SDS011;52016;51.228;-2.322;2022-09-20T19:38:09;6.80;;;3.78;;
65405;SDS011;52016;51.228;-2.322;2022-09-20T19:50:12;3.15;;;2.85;;
65405;SDS011;52016;51.228;-2.322;2022-09-20T19:54:03;6.13;;;3.45;;
65405;SDS011;52016;51.228;-2.322;2022-09-20T19:57:45;5.60;;;3.70;;
65405;SDS011;52016;51.228;-2.322;2022-09-20T20:01:28;9.82;;;3.70;;
65405;SDS011;52016;51.228;-2.322;2022-09-20T20:05:11;7.30;;;3.42;;
65405;SDS011;52016;51.228;-2.322;2022-09-20T20:20:47;13.32;;;5.20;;
65405;SDS011;52016;51.228;-2.322;2022-09-20T20:28:12;7.30;;;5.07;;
65405;SDS011;52016;51.228;-2.322;2022-09-20T20:31:54;6.47;;;4.07;;
65405;SDS011;52016;51.228;-2.322;2022-09-20T20:35:36;8.40;;;4.03;;
65405;SDS011;52016;51.228;-2.322;2022-09-20T20:39:17;10.32;;;4.85;;
65405;SDS011;52016;51.228;-2.322;2022-09-20T20:42:59;5.80;;;3.88;;
65405;SDS011;52016;51.228;-2.322;2022-09-20T20:46:42;5.60;;;3.85;;
65405;SDS011;52016;51.228;-2.322;2022-09-20T20:50:24;7.88;;;3.80;;
65405;SDS011;52016;51.228;-2.322;2022-09-20T20:54:07;4.28;;;3.88;;
65405;SDS011;52016;51.228;-2.322;2022-09-20T20:57:51;5.20;;;3.72;;
65405;SDS011;52016;51.228;-2.322;2022-09-20T21:01:37;7.78;;;3.72;;
65405;SDS011;52016;51.228;-2.322;2022-09-20T21:05:25;4.20;;;3.55;;
65405;SDS011;52016;51.228;-2.322;2022-09-20T21:09:08;9.93;;;4.25;;
65405;SDS011;52016;51.228;-2.322;2022-09-20T21:12:53;4.47;;;3.80;;
65405;SDS011;52016;51.228;-2.322;2022-09-20T21:16:36;7.18;;;3.70;;
65405;SDS011;52016;51.228;-2.322;2022-09-20T21:20:22;6.20;;;3.77;;
65405;SDS011;52016;51.228;-2.322;2022-09-20T21:24:05;6.50;;;3.70;;
65405;SDS011;52016;51.228;-2.322;2022-09-20T21:27:48;4.68;;;4.03;;
65405;SDS011;52016;51.228;-2.322;2022-09-20T21:31:31;6.32;;;3.80;;
65405;SDS011;52016;51.228;-2.322;2022-09-20T21:35:15;4.60;;;3.72;;
65405;SDS011;52016;51.228;-2.322;2022-09-20T21:38:57;5.00;;;4.43;;
65405;SDS011;52016;51.228;-2.322;2022-09-20T21:42:39;10.23;;;5.88;;
65405;SDS011;52016;51.228;-2.322;2022-09-20T21:46:21;14.45;;;5.55;;
65405;SDS011;52016;51.228;-2.322;2022-09-20T21:50:08;5.82;;;4.88;;
65405;SDS011;52016;51.228;-2.322;2022-09-20T21:53:53;10.52;;;5.13;;
65405;SDS011;52016;51.228;-2.322;2022-09-20T21:57:37;11.27;;;5.80;;
65405;SDS011;52016;51.228;-2.322;2022-09-20T22:01:22;8.13;;;5.32;;
65405;SDS011;52016;51.228;-2.322;2022-09-20T22:05:05;7.57;;;5.50;;
65405;SDS011;52016;51.228;-2.322;2022-09-20T22:08:57;7.18;;;5.38;;
65405;SDS011;52016;51.228;-2.322;2022-09-20T22:12:44;11.13;;;5.82;;
65405;SDS011;52016;51.228;-2.322;2022-09-20T22:16:30;10.38;;;6.50;;
65405;SDS011;52016;51.228;-2.322;2022-09-20T22:20:13;9.20;;;6.03;;
65405;SDS011;52016;51.228;-2.322;2022-09-20T22:23:55;10.52;;;6.80;;
65405;SDS011;52016;51.228;-2.322;2022-09-20T22:27:40;11.57;;;5.93;;
65405;SDS011;52016;51.228;-2.322;2022-09-20T22:31:29;8.52;;;5.95;;
65405;SDS011;52016;51.228;-2.322;2022-09-20T22:35:12;9.10;;;5.88;;
65405;SDS011;52016;51.228;-2.322;2022-09-20T22:38:54;7.18;;;4.97;;
65405;SDS011;52016;51.228;-2.322;2022-09-20T22:42:36;6.60;;;5.28;;
65405;SDS011;52016;51.228;-2.322;2022-09-20T22:46:19;7.30;;;5.40;;
65405;SDS011;52016;51.228;-2.322;2022-09-20T22:50:02;7.28;;;5.45;;
65405;SDS011;52016;51.228;-2.322;2022-09-20T22:53:45;6.57;;;5.20;;
65405;SDS011;52016;51.228;-2.322;2022-09-20T22:57:27;11.45;;;5.80;;
65405;SDS011;52016;51.228;-2.322;2022-09-20T23:01:10;7.93;;;5.25;;
65405;SDS011;52016;51.228;-2.322;2022-09-20T23:05:11;11.35;;;5.80;;
65405;SDS011;52016;51.228;-2.322;2022-09-20T23:08:54;7.97;;;5.95;;
65405;SDS011;52016;51.228;-2.322;2022-09-20T23:12:37;9.55;;;6.20;;
65405;SDS011;52016;51.228;-2.322;2022-09-20T23:16:19;9.00;;;6.40;;
65405;SDS011;52016;51.228;-2.322;2022-09-20T23:20:03;9.65;;;6.20;;
65405;SDS011;52016;51.228;-2.322;2022-09-20T23:23:45;10.32;;;7.40;;
65405;SDS011;52016;51.228;-2.322;2022-09-20T23:27:28;10.25;;;7.13;;
65405;SDS011;52016;51.228;-2.322;2022-09-20T23:31:11;9.32;;;7.15;;
65405;SDS011;52016;51.228;-2.322;2022-09-20T23:34:54;8.27;;;6.60;;
65405;SDS011;52016;51.228;-2.322;2022-09-20T23:38:37;12.00;;;6.82;;
65405;SDS011;52016;51.228;-2.322;2022-09-20T23:42:19;8.15;;;6.82;;
65405;SDS011;52016;51.228;-2.322;2022-09-20T23:46:01;8.68;;;6.70;;
65405;SDS011;52016;51.228;-2.322;2022-09-20T23:49:44;9.07;;;6.97;;
65405;SDS011;52016;51.228;-2.322;2022-09-20T23:53:26;7.15;;;6.28;;
65405;SDS011;52016;51.228;-2.322;2022-09-20T23:57:08;8.40;;;6.43;;
